sensor_id;sensor_type;location;lat;lon;timestamp;temperature;humidity
38910;DHT22;24676;51.360;12.354;2023-03-01T00:00:47;-3.10;99.90
38910;DHT22;24676;51.360;12.354;2023-03-01T00:03:32;-3.10;99.90
38910;DHT22;24676;51.360;12.354;2023-03-01T00:06:15;-3.10;99.90
38910;DHT22;24676;51.360;12.354;2023-03-01T00:09:00;-3.10;99.90
38910;DHT22;24676;51.360;12.354;2023-03-01T00:11:44;-3.00;99.90
38910;DHT22;24676;51.360;12.354;2023-03-01T00:14:28;-3.00;99.90
38910;DHT22;24676;51.360;12.354;2023-03-01T00:17:12;-3.10;99.90
38910;DHT22;24676;51.360;12.354;2023-03-01T00:19:56;-3.10;99.90
38910;DHT22;24676;51.360;12.354;2023-03-01T00:22:40;-3.00;99.90
38910;DHT22;24676;51.360;12.354;2023-03-01T00:25:24;-3.10;99.90
38910;DHT22;24676;51.360;12.354;2023-03-01T00:28:08;-3.10;99.90
38910;DHT22;24676;51.360;12.354;2023-03-01T00:30:53;-3.10;99.90
38910;DHT22;24676;51.360;12.354;2023-03-01T00:33:37;-3.10;99.90
38910;DHT22;24676;51.360;12.354;2023-03-01T00:36:21;-3.10;99.90
38910;DHT22;24676;51.360;12.354;2023-03-01T00:39:07;-3.20;99.90
38910;DHT22;24676;51.360;12.354;2023-03-01T00:41:51;-3.20;99.90
38910;DHT22;24676;51.360;12.354;2023-03-01T00:44:36;-3.20;99.90
38910;DHT22;24676;51.360;12.354;2023-03-01T00:47:20;-3.20;99.90
38910;DHT22;24676;51.360;12.354;2023-03-01T00:50:04;-3.30;99.90
38910;DHT22;24676;51.360;12.354;2023-03-01T00:52:51;-3.30;99.90
38910;DHT22;24676;51.360;12.354;2023-03-01T00:55:36;-3.30;99.90
38910;DHT22;24676;51.360;12.354;2023-03-01T00:58:20;-3.30;99.90
38910;DHT22;24676;51.360;12.354;2023-03-01T01:01:11;-3.40;99.90
38910;DHT22;24676;51.360;12.354;2023-03-01T01:04:02;-3.40;99.90
38910;DHT22;24676;51.360;12.354;2023-03-01T01:06:47;-3.40;99.90
38910;DHT22;24676;51.360;12.354;2023-03-01T01:09:31;-3.40;99.90
38910;DHT22;24676;51.360;12.354;2023-03-01T01:12:15;-3.40;99.90
38910;DHT22;24676;51.360;12.354;2023-03-01T01:14:59;-3.40;99.90
38910;DHT22;24676;51.360;12.354;2023-03-01T01:17:43;-3.40;99.90
38910;DHT22;24676;51.360;12.354;2023-03-01T01:20:28;-3.40;99.90
38910;DHT22;24676;51.360;12.354;2023-03-01T01:23:12;-3.50;99.90
38910;DHT22;24676;51.360;12.354;2023-03-01T01:25:56;-3.50;99.90
38910;DHT22;24676;51.360;12.354;2023-03-01T01:28:41;-3.50;99.90
38910;DHT22;24676;51.360;12.354;2023-03-01T01:31:25;-3.60;99.90
38910;DHT22;24676;51.360;12.354;2023-03-01T01:34:12;-3.60;99.90
38910;DHT22;24676;51.360;12.354;2023-03-01T01:36:57;-3.60;99.90
38910;DHT22;24676;51.360;12.354;2023-03-01T01:39:41;-3.70;99.90
38910;DHT22;24676;51.360;12.354;2023-03-01T01:42:25;-3.70;99.90
38910;DHT22;24676;51.360;12.354;2023-03-01T01:45:27;-3.70;99.90
38910;DHT22;24676;51.360;12.354;2023-03-01T01:48:12;-3.70;99.90
38910;DHT22;24676;51.360;12.354;2023-03-01T01:50:59;-3.70;99.90
38910;DHT22;24676;51.360;12.354;2023-03-01T01:53:44;-3.80;99.90
38910;DHT22;24676;51.360;12.354;2023-03-01T01:56:29;-3.80;99.90
38910;DHT22;24676;51.360;12.354;2023-03-01T01:59:17;-3.80;99.90
38910;DHT22;24676;51.360;12.354;2023-03-01T02:02:01;-3.80;99.90
38910;DHT22;24676;51.360;12.354;2023-03-01T02:04:47;-3.80;99.90
38910;DHT22;24676;51.360;12.354;2023-03-01T02:07:32;-3.80;99.90
38910;DHT22;24676;51.360;12.354;2023-03-01T02:10:16;-3.80;99.90
38910;DHT22;24676;51.360;12.354;2023-03-01T02:13:00;-3.80;99.90
38910;DHT22;24676;51.360;12.354;2023-03-01T02:15:45;-3.80;99.90
38910;DHT22;24676;51.360;12.354;2023-03-01T02:18:29;-3.80;99.90
38910;DHT22;24676;51.360;12.354;2023-03-01T02:21:29;-3.80;99.90
38910;DHT22;24676;51.360;12.354;2023-03-01T02:26:58;-3.90;99.90
38910;DHT22;24676;51.360;12.354;2023-03-01T02:29:42;-3.90;99.90
38910;DHT22;24676;51.360;12.354;2023-03-01T02:32:28;-3.90;99.90
38910;DHT22;24676;51.360;12.354;2023-03-01T02:35:13;-4.00;99.90
38910;DHT22;24676;51.360;12.354;2023-03-01T02:37:58;-4.00;99.90
38910;DHT22;24676;51.360;12.354;2023-03-01T02:40:45;-4.00;99.90
38910;DHT22;24676;51.360;12.354;2023-03-01T02:43:30;-4.10;99.90
38910;DHT22;24676;51.360;12.354;2023-03-01T02:46:19;-4.10;99.90
38910;DHT22;24676;51.360;12.354;2023-03-01T02:49:16;-4.10;99.90
38910;DHT22;24676;51.360;12.354;2023-03-01T02:57:31;-4.20;99.90
38910;DHT22;24676;51.360;12.354;2023-03-01T03:00:17;-4.20;99.90
38910;DHT22;24676;51.360;12.354;2023-03-01T03:03:05;-4.20;99.90
38910;DHT22;24676;51.360;12.354;2023-03-01T03:05:49;-4.20;99.90
38910;DHT22;24676;51.360;12.354;2023-03-01T03:08:34;-4.20;99.90
38910;DHT22;24676;51.360;12.354;2023-03-01T03:11:18;-4.20;99.90
38910;DHT22;24676;51.360;12.354;2023-03-01T03:14:02;-4.20;99.90
38910;DHT22;24676;51.360;12.354;2023-03-01T03:16:48;-4.20;99.90
38910;DHT22;24676;51.360;12.354;2023-03-01T03:19:32;-4.20;99.90
38910;DHT22;24676;51.360;12.354;2023-03-01T03:22:16;-4.20;99.90
38910;DHT22;24676;51.360;12.354;2023-03-01T03:25:01;-4.20;99.90
38910;DHT22;24676;51.360;12.354;2023-03-01T03:27:45;-4.20;99.90
38910;DHT22;24676;51.360;12.354;2023-03-01T03:30:31;-4.30;99.90
38910;DHT22;24676;51.360;12.354;2023-03-01T03:33:15;-4.30;99.90
38910;DHT22;24676;51.360;12.354;2023-03-01T03:35:59;-4.30;99.90
38910;DHT22;24676;51.360;12.354;2023-03-01T03:38:43;-4.30;99.90
38910;DHT22;24676;51.360;12.354;2023-03-01T03:41:28;-4.30;99.90
38910;DHT22;24676;51.360;12.354;2023-03-01T03:44:12;-4.30;99.90
38910;DHT22;24676;51.360;12.354;2023-03-01T03:46:57;-4.40;99.90
38910;DHT22;24676;51.360;12.354;2023-03-01T03:49:41;-4.40;99.90
38910;DHT22;24676;51.360;12.354;2023-03-01T03:52:25;-4.40;99.90
38910;DHT22;24676;51.360;12.354;2023-03-01T03:55:10;-4.40;99.90
38910;DHT22;24676;51.360;12.354;2023-03-01T03:57:54;-4.50;99.90
38910;DHT22;24676;51.360;12.354;2023-03-01T04:00:41;-4.50;99.90
38910;DHT22;24676;51.360;12.354;2023-03-01T04:03:25;-4.50;99.90
38910;DHT22;24676;51.360;12.354;2023-03-01T04:06:10;-4.60;99.90
38910;DHT22;24676;51.360;12.354;2023-03-01T04:08:54;-4.60;99.90
38910;DHT22;24676;51.360;12.354;2023-03-01T04:11:42;-4.60;99.90
38910;DHT22;24676;51.360;12.354;2023-03-01T04:14:26;-4.60;99.90
38910;DHT22;24676;51.360;12.354;2023-03-01T04:17:10;-4.60;99.90
38910;DHT22;24676;51.360;12.354;2023-03-01T04:19:55;-4.60;99.90
38910;DHT22;24676;51.360;12.354;2023-03-01T04:22:39;-4.60;99.90
38910;DHT22;24676;51.360;12.354;2023-03-01T04:25:28;-4.60;99.90
38910;DHT22;24676;51.360;12.354;2023-03-01T04:28:12;-4.60;99.90
38910;DHT22;24676;51.360;12.354;2023-03-01T04:30:57;-4.60;99.90
38910;DHT22;24676;51.360;12.354;2023-03-01T04:33:42;-4.50;99.90
38910;DHT22;24676;51.360;12.354;2023-03-01T04:36:27;-4.50;99.90
38910;DHT22;24676;51.360;12.354;2023-03-01T04:39:11;-4.60;99.90
38910;DHT22;24676;51.360;12.354;2023-03-01T04:41:56;-4.60;99.90
38910;DHT22;24676;51.360;12.354;2023-03-01T04:44:40;-4.60;99.90
38910;DHT22;24676;51.360;12.354;2023-03-01T04:47:24;-4.60;99.90
38910;DHT22;24676;51.360;12.354;2023-03-01T04:50:09;-4.70;99.90
38910;DHT22;24676;51.360;12.354;2023-03-01T04:52:53;-4.70;99.90
38910;DHT22;24676;51.360;12.354;2023-03-01T04:55:37;-4.70;99.90
38910;DHT22;24676;51.360;12.354;2023-03-01T04:58:22;-4.70;99.90
38910;DHT22;24676;51.360;12.354;2023-03-01T05:01:10;-4.70;99.90
38910;DHT22;24676;51.360;12.354;2023-03-01T05:03:58;-4.70;99.90
38910;DHT22;24676;51.360;12.354;2023-03-01T05:06:46;-4.70;99.90
38910;DHT22;24676;51.360;12.354;2023-03-01T05:09:30;-4.70;99.90
38910;DHT22;24676;51.360;12.354;2023-03-01T05:12:15;-4.70;99.90
38910;DHT22;24676;51.360;12.354;2023-03-01T05:14:59;-4.70;99.90
38910;DHT22;24676;51.360;12.354;2023-03-01T05:17:43;-4.70;99.90
38910;DHT22;24676;51.360;12.354;2023-03-01T05:20:28;-4.70;99.90
38910;DHT22;24676;51.360;12.354;2023-03-01T05:23:12;-4.80;99.90
38910;DHT22;24676;51.360;12.354;2023-03-01T05:25:57;-4.80;99.90
38910;DHT22;24676;51.360;12.354;2023-03-01T05:28:41;-4.80;99.90
38910;DHT22;24676;51.360;12.354;2023-03-01T05:31:26;-4.80;99.90
38910;DHT22;24676;51.360;12.354;2023-03-01T05:34:10;-4.80;99.90
38910;DHT22;24676;51.360;12.354;2023-03-01T05:36:56;-4.80;99.90
38910;DHT22;24676;51.360;12.354;2023-03-01T05:39:40;-4.80;99.90
38910;DHT22;24676;51.360;12.354;2023-03-01T05:42:25;-4.70;99.90
38910;DHT22;24676;51.360;12.354;2023-03-01T05:45:10;-4.70;99.90
38910;DHT22;24676;51.360;12.354;2023-03-01T05:47:54;-4.70;99.90
38910;DHT22;24676;51.360;12.354;2023-03-01T05:50:40;-4.60;99.90
38910;DHT22;24676;51.360;12.354;2023-03-01T05:53:24;-4.40;99.90
38910;DHT22;24676;51.360;12.354;2023-03-01T05:56:08;-4.30;99.90
38910;DHT22;24676;51.360;12.354;2023-03-01T05:58:52;-4.30;99.90
38910;DHT22;24676;51.360;12.354;2023-03-01T06:01:37;-4.20;99.90
38910;DHT22;24676;51.360;12.354;2023-03-01T06:04:21;-4.20;99.90
38910;DHT22;24676;51.360;12.354;2023-03-01T06:07:05;-4.20;99.90
38910;DHT22;24676;51.360;12.354;2023-03-01T06:09:49;-4.30;99.90
38910;DHT22;24676;51.360;12.354;2023-03-01T06:12:34;-4.30;99.90
38910;DHT22;24676;51.360;12.354;2023-03-01T06:15:19;-4.20;99.90
38910;DHT22;24676;51.360;12.354;2023-03-01T06:18:04;-4.00;99.90
38910;DHT22;24676;51.360;12.354;2023-03-01T06:20:57;-3.80;99.90
38910;DHT22;24676;51.360;12.354;2023-03-01T06:23:41;-3.70;99.90
38910;DHT22;24676;51.360;12.354;2023-03-01T06:26:26;-3.50;99.90
38910;DHT22;24676;51.360;12.354;2023-03-01T06:29:10;-3.30;99.90
38910;DHT22;24676;51.360;12.354;2023-03-01T06:31:54;-3.10;99.90
38910;DHT22;24676;51.360;12.354;2023-03-01T06:34:38;-3.00;99.90
38910;DHT22;24676;51.360;12.354;2023-03-01T06:37:23;-2.90;99.90
38910;DHT22;24676;51.360;12.354;2023-03-01T06:40:08;-2.80;99.90
38910;DHT22;24676;51.360;12.354;2023-03-01T06:42:54;-2.70;99.90
38910;DHT22;24676;51.360;12.354;2023-03-01T06:45:38;-2.60;99.90
38910;DHT22;24676;51.360;12.354;2023-03-01T06:48:23;-2.60;99.90
38910;DHT22;24676;51.360;12.354;2023-03-01T06:51:07;-2.50;99.90
38910;DHT22;24676;51.360;12.354;2023-03-01T06:53:51;-2.40;99.90
38910;DHT22;24676;51.360;12.354;2023-03-01T06:56:35;-2.30;99.90
38910;DHT22;24676;51.360;12.354;2023-03-01T06:59:19;-2.20;99.90
38910;DHT22;24676;51.360;12.354;2023-03-01T07:02:03;-2.10;99.90
38910;DHT22;24676;51.360;12.354;2023-03-01T07:04:51;-2.00;99.90
38910;DHT22;24676;51.360;12.354;2023-03-01T07:07:35;-1.90;99.90
38910;DHT22;24676;51.360;12.354;2023-03-01T07:10:19;-1.80;99.90
38910;DHT22;24676;51.360;12.354;2023-03-01T07:13:03;-1.70;99.90
38910;DHT22;24676;51.360;12.354;2023-03-01T07:15:50;-1.50;99.90
38910;DHT22;24676;51.360;12.354;2023-03-01T07:18:34;-1.30;99.90
38910;DHT22;24676;51.360;12.354;2023-03-01T07:21:19;-1.20;99.90
38910;DHT22;24676;51.360;12.354;2023-03-01T07:24:05;-1.00;99.90
38910;DHT22;24676;51.360;12.354;2023-03-01T07:26:50;-0.80;99.90
38910;DHT22;24676;51.360;12.354;2023-03-01T07:29:35;0.00;99.90
38910;DHT22;24676;51.360;12.354;2023-03-01T07:32:20;2.70;99.90
38910;DHT22;24676;51.360;12.354;2023-03-01T07:35:05;5.30;99.90
38910;DHT22;24676;51.360;12.354;2023-03-01T07:37:49;8.30;88.30
38910;DHT22;24676;51.360;12.354;2023-03-01T07:40:33;10.90;58.30
38910;DHT22;24676;51.360;12.354;2023-03-01T07:43:18;12.90;50.80
38910;DHT22;24676;51.360;12.354;2023-03-01T07:46:03;14.80;43.70
38910;DHT22;24676;51.360;12.354;2023-03-01T07:48:48;16.20;40.00
38910;DHT22;24676;51.360;12.354;2023-03-01T07:51:32;16.70;36.70
38910;DHT22;24676;51.360;12.354;2023-03-01T07:54:15;17.50;36.30
38910;DHT22;24676;51.360;12.354;2023-03-01T07:57:00;18.60;34.10
38910;DHT22;24676;51.360;12.354;2023-03-01T07:59:44;19.10;31.80
38910;DHT22;24676;51.360;12.354;2023-03-01T08:02:28;20.30;30.20
38910;DHT22;24676;51.360;12.354;2023-03-01T08:05:12;21.10;28.70
38910;DHT22;24676;51.360;12.354;2023-03-01T08:07:56;21.30;27.50
38910;DHT22;24676;51.360;12.354;2023-03-01T08:10:41;20.80;28.80
38910;DHT22;24676;51.360;12.354;2023-03-01T08:13:25;21.00;27.90
38910;DHT22;24676;51.360;12.354;2023-03-01T08:16:14;20.20;28.00
38910;DHT22;24676;51.360;12.354;2023-03-01T08:19:06;19.70;29.20
38910;DHT22;24676;51.360;12.354;2023-03-01T08:21:51;19.00;29.00
38910;DHT22;24676;51.360;12.354;2023-03-01T08:24:35;17.20;30.30
38910;DHT22;24676;51.360;12.354;2023-03-01T08:27:20;15.10;33.80
38910;DHT22;24676;51.360;12.354;2023-03-01T08:30:05;13.90;37.00
38910;DHT22;24676;51.360;12.354;2023-03-01T08:32:49;12.30;38.70
38910;DHT22;24676;51.360;12.354;2023-03-01T08:35:34;11.00;41.70
38910;DHT22;24676;51.360;12.354;2023-03-01T08:38:18;10.20;43.80
38910;DHT22;24676;51.360;12.354;2023-03-01T08:41:03;9.90;45.90
38910;DHT22;24676;51.360;12.354;2023-03-01T08:43:48;9.70;46.50
38910;DHT22;24676;51.360;12.354;2023-03-01T08:46:34;9.60;47.20
38910;DHT22;24676;51.360;12.354;2023-03-01T08:49:20;9.40;47.80
38910;DHT22;24676;51.360;12.354;2023-03-01T08:52:04;9.20;48.10
38910;DHT22;24676;51.360;12.354;2023-03-01T08:54:48;9.00;48.90
38910;DHT22;24676;51.360;12.354;2023-03-01T08:57:32;9.10;49.40
38910;DHT22;24676;51.360;12.354;2023-03-01T09:00:17;9.10;48.70
38910;DHT22;24676;51.360;12.354;2023-03-01T09:03:01;9.00;49.60
38910;DHT22;24676;51.360;12.354;2023-03-01T09:05:45;9.20;49.70
38910;DHT22;24676;51.360;12.354;2023-03-01T09:08:30;9.20;49.70
38910;DHT22;24676;51.360;12.354;2023-03-01T09:11:19;9.20;50.30
38910;DHT22;24676;51.360;12.354;2023-03-01T09:14:05;8.60;49.70
38910;DHT22;24676;51.360;12.354;2023-03-01T09:16:50;8.30;51.20
38910;DHT22;24676;51.360;12.354;2023-03-01T09:19:34;7.80;51.70
38910;DHT22;24676;51.360;12.354;2023-03-01T09:22:18;7.70;52.30
38910;DHT22;24676;51.360;12.354;2023-03-01T09:25:02;7.50;53.20
38910;DHT22;24676;51.360;12.354;2023-03-01T09:27:47;7.50;54.10
38910;DHT22;24676;51.360;12.354;2023-03-01T09:30:31;7.70;54.00
38910;DHT22;24676;51.360;12.354;2023-03-01T09:33:17;7.70;52.70
38910;DHT22;24676;51.360;12.354;2023-03-01T09:36:07;7.70;53.00
38910;DHT22;24676;51.360;12.354;2023-03-01T09:38:52;8.00;52.80
38910;DHT22;24676;51.360;12.354;2023-03-01T09:47:22;8.10;51.80
38910;DHT22;24676;51.360;12.354;2023-03-01T09:50:16;7.80;51.40
38910;DHT22;24676;51.360;12.354;2023-03-01T09:53:06;7.70;52.50
38910;DHT22;24676;51.360;12.354;2023-03-01T09:56:04;7.90;52.70
38910;DHT22;24676;51.360;12.354;2023-03-01T10:01:55;8.90;51.50
38910;DHT22;24676;51.360;12.354;2023-03-01T10:04:48;9.50;49.30
38910;DHT22;24676;51.360;12.354;2023-03-01T10:10:43;9.60;48.70
38910;DHT22;24676;51.360;12.354;2023-03-01T10:19:43;9.70;49.00
38910;DHT22;24676;51.360;12.354;2023-03-01T10:22:29;10.50;48.20
38910;DHT22;24676;51.360;12.354;2023-03-01T10:25:15;11.60;46.10
38910;DHT22;24676;51.360;12.354;2023-03-01T10:28:17;11.80;44.30
38910;DHT22;24676;51.360;12.354;2023-03-01T10:31:02;11.80;43.10
38910;DHT22;24676;51.360;12.354;2023-03-01T10:33:47;11.40;42.60
38910;DHT22;24676;51.360;12.354;2023-03-01T10:36:38;10.60;44.60
38910;DHT22;24676;51.360;12.354;2023-03-01T10:39:25;10.60;45.60
38910;DHT22;24676;51.360;12.354;2023-03-01T10:42:29;11.60;44.40
38910;DHT22;24676;51.360;12.354;2023-03-01T10:48:26;12.00;42.60
38910;DHT22;24676;51.360;12.354;2023-03-01T10:51:17;11.80;43.30
38910;DHT22;24676;51.360;12.354;2023-03-01T10:54:02;11.80;43.00
38910;DHT22;24676;51.360;12.354;2023-03-01T10:57:02;12.00;43.80
38910;DHT22;24676;51.360;12.354;2023-03-01T11:00:34;12.40;43.40
38910;DHT22;24676;51.360;12.354;2023-03-01T11:03:18;12.90;41.30
38910;DHT22;24676;51.360;12.354;2023-03-01T11:08:50;13.80;40.30
38910;DHT22;24676;51.360;12.354;2023-03-01T11:11:34;14.50;39.80
38910;DHT22;24676;51.360;12.354;2023-03-01T11:14:22;14.30;38.40
38910;DHT22;24676;51.360;12.354;2023-03-01T11:17:30;13.70;39.20
38910;DHT22;24676;51.360;12.354;2023-03-01T11:20:22;13.80;39.30
38910;DHT22;24676;51.360;12.354;2023-03-01T11:23:12;14.60;39.60
38910;DHT22;24676;51.360;12.354;2023-03-01T11:26:02;15.20;37.30
38910;DHT22;24676;51.360;12.354;2023-03-01T11:28:51;15.00;37.00
38910;DHT22;24676;51.360;12.354;2023-03-01T11:31:39;14.80;36.40
38910;DHT22;24676;51.360;12.354;2023-03-01T11:34:35;14.30;38.00
38910;DHT22;24676;51.360;12.354;2023-03-01T11:37:37;14.30;37.20
38910;DHT22;24676;51.360;12.354;2023-03-01T11:43:55;14.50;36.60
38910;DHT22;24676;51.360;12.354;2023-03-01T11:50:23;14.30;37.80
38910;DHT22;24676;51.360;12.354;2023-03-01T12:08:37;16.00;34.70
38910;DHT22;24676;51.360;12.354;2023-03-01T12:11:31;16.10;34.90
38910;DHT22;24676;51.360;12.354;2023-03-01T12:14:30;15.90;35.20
38910;DHT22;24676;51.360;12.354;2023-03-01T12:17:46;14.90;35.10
38910;DHT22;24676;51.360;12.354;2023-03-01T12:21:05;14.70;35.70
38910;DHT22;24676;51.360;12.354;2023-03-01T12:24:24;13.40;37.30
38910;DHT22;24676;51.360;12.354;2023-03-01T12:30:26;12.30;38.70
38910;DHT22;24676;51.360;12.354;2023-03-01T12:33:38;11.40;39.30
38910;DHT22;24676;51.360;12.354;2023-03-01T12:36:26;10.80;41.30
38910;DHT22;24676;51.360;12.354;2023-03-01T12:48:47;8.40;48.10
38910;DHT22;24676;51.360;12.354;2023-03-01T12:51:33;8.10;49.40
38910;DHT22;24676;51.360;12.354;2023-03-01T12:54:26;8.00;49.70
38910;DHT22;24676;51.360;12.354;2023-03-01T12:57:20;7.90;51.00
38910;DHT22;24676;51.360;12.354;2023-03-01T13:00:26;8.00;50.90
38910;DHT22;24676;51.360;12.354;2023-03-01T13:03:18;7.90;50.50
38910;DHT22;24676;51.360;12.354;2023-03-01T13:06:11;7.90;50.70
38910;DHT22;24676;51.360;12.354;2023-03-01T13:12:49;7.60;50.30
38910;DHT22;24676;51.360;12.354;2023-03-01T13:15:36;7.50;50.80
38910;DHT22;24676;51.360;12.354;2023-03-01T13:21:09;7.70;50.50
38910;DHT22;24676;51.360;12.354;2023-03-01T13:23:53;7.60;50.20
38910;DHT22;24676;51.360;12.354;2023-03-01T13:29:52;7.30;50.70
38910;DHT22;24676;51.360;12.354;2023-03-01T13:32:37;7.20;51.50
38910;DHT22;24676;51.360;12.354;2023-03-01T13:35:40;7.20;51.80
38910;DHT22;24676;51.360;12.354;2023-03-01T13:38:45;7.30;50.40
38910;DHT22;24676;51.360;12.354;2023-03-01T13:41:56;7.20;50.30
38910;DHT22;24676;51.360;12.354;2023-03-01T13:44:44;7.20;50.40
38910;DHT22;24676;51.360;12.354;2023-03-01T13:47:38;7.10;50.10
38910;DHT22;24676;51.360;12.354;2023-03-01T13:50:27;7.20;50.10
38910;DHT22;24676;51.360;12.354;2023-03-01T13:53:19;7.10;49.30
38910;DHT22;24676;51.360;12.354;2023-03-01T13:56:10;7.00;49.10
38910;DHT22;24676;51.360;12.354;2023-03-01T14:02:00;6.90;47.60
38910;DHT22;24676;51.360;12.354;2023-03-01T14:04:56;7.00;47.10
38910;DHT22;24676;51.360;12.354;2023-03-01T14:07:40;7.00;47.00
38910;DHT22;24676;51.360;12.354;2023-03-01T14:11:05;7.10;47.10
38910;DHT22;24676;51.360;12.354;2023-03-01T14:23:07;7.00;43.50
38910;DHT22;24676;51.360;12.354;2023-03-01T14:25:55;6.90;43.90
38910;DHT22;24676;51.360;12.354;2023-03-01T14:28:42;6.90;44.50
38910;DHT22;24676;51.360;12.354;2023-03-01T14:31:36;6.90;44.80
38910;DHT22;24676;51.360;12.354;2023-03-01T14:34:22;6.80;44.90
38910;DHT22;24676;51.360;12.354;2023-03-01T14:37:19;6.80;45.40
38910;DHT22;24676;51.360;12.354;2023-03-01T14:40:04;6.80;45.70
38910;DHT22;24676;51.360;12.354;2023-03-01T14:42:48;6.70;45.50
38910;DHT22;24676;51.360;12.354;2023-03-01T14:45:33;6.70;45.90
38910;DHT22;24676;51.360;12.354;2023-03-01T14:48:18;6.70;46.60
38910;DHT22;24676;51.360;12.354;2023-03-01T14:51:05;6.70;47.30
38910;DHT22;24676;51.360;12.354;2023-03-01T14:53:49;6.70;47.70
38910;DHT22;24676;51.360;12.354;2023-03-01T14:56:45;6.70;47.10
38910;DHT22;24676;51.360;12.354;2023-03-01T14:59:30;6.70;47.40
38910;DHT22;24676;51.360;12.354;2023-03-01T15:02:19;6.70;47.50
38910;DHT22;24676;51.360;12.354;2023-03-01T15:05:04;6.70;47.50
38910;DHT22;24676;51.360;12.354;2023-03-01T15:07:49;6.70;47.00
38910;DHT22;24676;51.360;12.354;2023-03-01T15:10:36;6.70;47.30
38910;DHT22;24676;51.360;12.354;2023-03-01T15:13:23;6.60;47.50
38910;DHT22;24676;51.360;12.354;2023-03-01T15:16:13;6.60;47.80
38910;DHT22;24676;51.360;12.354;2023-03-01T15:19:06;6.50;48.30
38910;DHT22;24676;51.360;12.354;2023-03-01T15:21:50;6.50;48.90
38910;DHT22;24676;51.360;12.354;2023-03-01T15:24:35;6.50;49.20
38910;DHT22;24676;51.360;12.354;2023-03-01T15:27:23;6.40;48.90
38910;DHT22;24676;51.360;12.354;2023-03-01T15:30:27;6.40;49.00
38910;DHT22;24676;51.360;12.354;2023-03-01T15:36:30;6.40;49.20
38910;DHT22;24676;51.360;12.354;2023-03-01T15:48:05;6.20;49.60
38910;DHT22;24676;51.360;12.354;2023-03-01T15:50:58;6.20;49.80
38910;DHT22;24676;51.360;12.354;2023-03-01T15:53:50;6.20;49.10
38910;DHT22;24676;51.360;12.354;2023-03-01T15:56:35;6.10;49.10
38910;DHT22;24676;51.360;12.354;2023-03-01T15:59:19;6.10;49.50
38910;DHT22;24676;51.360;12.354;2023-03-01T16:02:09;6.00;49.70
38910;DHT22;24676;51.360;12.354;2023-03-01T16:04:54;6.00;50.00
38910;DHT22;24676;51.360;12.354;2023-03-01T16:07:40;5.90;50.00
38910;DHT22;24676;51.360;12.354;2023-03-01T16:10:24;5.90;50.40
38910;DHT22;24676;51.360;12.354;2023-03-01T16:13:09;5.80;50.30
38910;DHT22;24676;51.360;12.354;2023-03-01T16:15:53;5.70;50.10
38910;DHT22;24676;51.360;12.354;2023-03-01T16:18:38;5.70;50.30
38910;DHT22;24676;51.360;12.354;2023-03-01T16:21:24;5.60;50.70
38910;DHT22;24676;51.360;12.354;2023-03-01T16:24:08;5.50;50.60
38910;DHT22;24676;51.360;12.354;2023-03-01T16:26:52;5.50;50.60
38910;DHT22;24676;51.360;12.354;2023-03-01T16:29:36;5.40;50.70
38910;DHT22;24676;51.360;12.354;2023-03-01T16:32:21;5.40;51.10
38910;DHT22;24676;51.360;12.354;2023-03-01T16:35:10;5.30;51.60
38910;DHT22;24676;51.360;12.354;2023-03-01T16:37:54;5.20;52.10
38910;DHT22;24676;51.360;12.354;2023-03-01T16:40:38;5.10;52.30
38910;DHT22;24676;51.360;12.354;2023-03-01T16:43:22;5.00;52.50
38910;DHT22;24676;51.360;12.354;2023-03-01T16:46:18;4.90;53.00
38910;DHT22;24676;51.360;12.354;2023-03-01T16:49:02;4.70;53.50
38910;DHT22;24676;51.360;12.354;2023-03-01T16:51:47;4.60;54.00
38910;DHT22;24676;51.360;12.354;2023-03-01T16:54:31;4.60;54.40
38910;DHT22;24676;51.360;12.354;2023-03-01T16:57:19;4.50;54.80
38910;DHT22;24676;51.360;12.354;2023-03-01T17:00:08;4.40;55.30
38910;DHT22;24676;51.360;12.354;2023-03-01T17:02:56;4.30;55.80
38910;DHT22;24676;51.360;12.354;2023-03-01T17:05:41;4.30;56.40
38910;DHT22;24676;51.360;12.354;2023-03-01T17:08:25;4.20;56.90
38910;DHT22;24676;51.360;12.354;2023-03-01T17:11:15;4.10;57.90
38910;DHT22;24676;51.360;12.354;2023-03-01T17:13:59;4.00;58.70
38910;DHT22;24676;51.360;12.354;2023-03-01T17:16:44;3.90;59.10
38910;DHT22;24676;51.360;12.354;2023-03-01T17:19:28;3.80;59.80
38910;DHT22;24676;51.360;12.354;2023-03-01T17:22:13;3.70;60.40
38910;DHT22;24676;51.360;12.354;2023-03-01T17:24:58;3.60;61.70
38910;DHT22;24676;51.360;12.354;2023-03-01T17:27:44;3.50;62.70
38910;DHT22;24676;51.360;12.354;2023-03-01T17:30:28;3.40;63.20
38910;DHT22;24676;51.360;12.354;2023-03-01T17:33:13;3.40;64.20
38910;DHT22;24676;51.360;12.354;2023-03-01T17:35:57;3.40;64.20
38910;DHT22;24676;51.360;12.354;2023-03-01T17:38:42;3.40;63.80
38910;DHT22;24676;51.360;12.354;2023-03-01T17:41:27;3.40;64.00
38910;DHT22;24676;51.360;12.354;2023-03-01T17:44:11;3.30;64.30
38910;DHT22;24676;51.360;12.354;2023-03-01T17:46:55;3.30;64.70
38910;DHT22;24676;51.360;12.354;2023-03-01T17:49:40;3.20;64.90
38910;DHT22;24676;51.360;12.354;2023-03-01T17:52:24;3.20;65.20
38910;DHT22;24676;51.360;12.354;2023-03-01T17:55:09;3.00;66.00
38910;DHT22;24676;51.360;12.354;2023-03-01T17:57:54;3.00;67.30
38910;DHT22;24676;51.360;12.354;2023-03-01T18:00:38;2.90;67.50
38910;DHT22;24676;51.360;12.354;2023-03-01T18:03:22;2.90;68.10
38910;DHT22;24676;51.360;12.354;2023-03-01T18:08:59;2.70;70.10
38910;DHT22;24676;51.360;12.354;2023-03-01T18:11:44;2.70;70.40
38910;DHT22;24676;51.360;12.354;2023-03-01T18:14:28;2.60;71.20
38910;DHT22;24676;51.360;12.354;2023-03-01T18:17:23;2.60;71.50
38910;DHT22;24676;51.360;12.354;2023-03-01T18:20:08;2.50;72.00
38910;DHT22;24676;51.360;12.354;2023-03-01T18:22:53;2.50;72.90
38910;DHT22;24676;51.360;12.354;2023-03-01T18:25:41;2.40;74.20
38910;DHT22;24676;51.360;12.354;2023-03-01T18:28:29;2.30;75.30
38910;DHT22;24676;51.360;12.354;2023-03-01T18:31:15;2.20;77.70
38910;DHT22;24676;51.360;12.354;2023-03-01T18:34:04;2.20;79.30
38910;DHT22;24676;51.360;12.354;2023-03-01T18:36:48;2.10;81.20
38910;DHT22;24676;51.360;12.354;2023-03-01T18:39:34;2.10;82.40
38910;DHT22;24676;51.360;12.354;2023-03-01T18:42:19;2.10;84.80
38910;DHT22;24676;51.360;12.354;2023-03-01T18:45:03;2.00;85.90
38910;DHT22;24676;51.360;12.354;2023-03-01T18:47:47;2.00;86.00
38910;DHT22;24676;51.360;12.354;2023-03-01T18:50:32;2.00;87.10
38910;DHT22;24676;51.360;12.354;2023-03-01T18:53:17;1.90;86.60
38910;DHT22;24676;51.360;12.354;2023-03-01T18:56:01;2.00;87.90
38910;DHT22;24676;51.360;12.354;2023-03-01T18:58:45;2.00;86.30
38910;DHT22;24676;51.360;12.354;2023-03-01T19:01:31;2.00;85.70
38910;DHT22;24676;51.360;12.354;2023-03-01T19:04:15;2.10;86.00
38910;DHT22;24676;51.360;12.354;2023-03-01T19:07:00;2.10;85.60
38910;DHT22;24676;51.360;12.354;2023-03-01T19:09:45;2.10;85.10